Time,TemperatureF,DewpointF,PressureIn,WindDirection,WindDirectionDegrees,WindSpeedMPH,WindSpeedGustMPH,Humidity,HourlyPrecipIn,Conditions,Clouds,dailyrainin,SoftwareType,DateUTC
2013-06-29 00:01:00,65.0,64.0,-100.00,North,0,5.0,9.0,96,-99.99,,,-99.99,,2013-06-29 05:01:00,
2013-06-29 00:31:00,65.0,64.0,-100.00,NNW,340,3.0,7.0,96,-99.99,,,-99.99,,2013-06-29 05:31:00,
2013-06-29 00:41:00,65.0,64.0,-100.00,NNW,340,3.0,7.0,96,-99.99,,,-99.99,,2013-06-29 05:41:00,
2013-06-29 00:52:00,65.0,64.0,-100.00,NNW,340,3.0,7.0,96,-99.99,,,-99.99,,2013-06-29 05:52:00,
2013-06-29 01:01:00,65.0,64.0,-100.00,NNW,340,3.0,7.0,96,-99.99,,,-99.99,,2013-06-29 06:01:00,
2013-06-29 01:34:00,63.0,62.0,-100.00,NNW,340,5.0,9.0,96,-99.99,,,-99.99,,2013-06-29 06:34:00,
2013-06-29 01:43:00,63.0,62.0,-100.00,NNW,340,5.0,9.0,96,-99.99,,,-99.99,,2013-06-29 06:43:00,
2013-06-29 01:53:00,63.0,62.0,-100.00,NNW,340,5.0,9.0,96,-99.99,,,-99.99,,2013-06-29 06:53:00,
2013-06-29 02:02:00,63.0,62.0,-100.00,NNW,340,5.0,9.0,96,-99.99,,,-99.99,,2013-06-29 07:02:00,
2013-06-29 02:10:00,62.0,60.0,-100.00,NW,320,3.0,7.0,96,-99.99,,,-99.99,,2013-06-29 07:10:00,
2013-06-29 02:33:00,62.0,60.0,-100.00,NW,320,3.0,7.0,96,-99.99,,,-99.99,,2013-06-29 07:33:00,
2013-06-29 02:43:00,62.0,60.0,-100.00,NW,320,3.0,7.0,96,-99.99,,,-99.99,,2013-06-29 07:43:00,
2013-06-29 02:53:00,62.0,60.0,-100.00,NW,320,3.0,7.0,96,-99.99,,,-99.99,,2013-06-29 07:53:00,
2013-06-29 03:01:00,62.0,60.0,-100.00,NW,320,3.0,7.0,96,-99.99,,,-99.99,,2013-06-29 08:01:00,
2013-06-29 03:33:00,61.0,60.0,-100.00,North,0,7.0,10.0,96,-99.99,,,-99.99,,2013-06-29 08:33:00,
2013-06-29 03:43:00,61.0,60.0,-100.00,North,0,7.0,10.0,96,-99.99,,,-99.99,,2013-06-29 08:43:00,
2013-06-29 03:52:00,61.0,60.0,-100.00,North,0,7.0,10.0,96,-99.99,,,-99.99,,2013-06-29 08:52:00,
2013-06-29 04:02:00,61.0,60.0,-100.00,North,0,7.0,10.0,96,-99.99,,,-99.99,,2013-06-29 09:02:00,
2013-06-29 04:33:00,60.0,59.0,-100.00,North,0,6.0,9.0,96,-99.99,,,-99.99,,2013-06-29 09:33:00,
2013-06-29 04:42:00,60.0,59.0,-100.00,North,0,6.0,9.0,96,-99.99,,,-99.99,,2013-06-29 09:42:00,
2013-06-29 04:53:00,60.0,59.0,-100.00,North,0,6.0,9.0,96,-99.99,,,-99.99,,2013-06-29 09:53:00,
2013-06-29 05:01:00,60.0,59.0,-100.00,North,0,6.0,9.0,96,-99.99,,,-99.99,,2013-06-29 10:01:00,
2013-06-29 05:33:00,60.0,59.0,-100.00,North,0,6.0,11.0,97,-99.99,,,-99.99,,2013-06-29 10:33:00,
2013-06-29 05:43:00,60.0,59.0,-100.00,North,0,6.0,11.0,97,-99.99,,,-99.99,,2013-06-29 10:43:00,
2013-06-29 05:53:00,60.0,59.0,-100.00,North,0,6.0,11.0,97,-99.99,,,-99.99,,2013-06-29 10:53:00,
2013-06-29 06:02:00,60.0,59.0,-100.00,North,0,6.0,11.0,97,-99.99,,,-99.99,,2013-06-29 11:02:00,
2013-06-29 06:33:00,60.0,60.0,-100.00,North,0,6.0,9.0,97,-99.99,,,-99.99,,2013-06-29 11:33:00,
2013-06-29 06:43:00,60.0,60.0,-100.00,North,0,6.0,9.0,97,-99.99,,,-99.99,,2013-06-29 11:43:00,
2013-06-29 06:53:00,60.0,60.0,-100.00,North,0,6.0,9.0,97,-99.99,,,-99.99,,2013-06-29 11:53:00,
2013-06-29 07:02:00,60.0,60.0,-100.00,North,0,6.0,9.0,97,-99.99,,,-99.99,,2013-06-29 12:02:00,
2013-06-29 07:34:00,63.0,62.0,-100.00,North,0,7.0,11.0,96,-99.99,,,-99.99,,2013-06-29 12:34:00,
2013-06-29 07:43:00,63.0,62.0,-100.00,North,0,7.0,11.0,96,-99.99,,,-99.99,,2013-06-29 12:43:00,
2013-06-29 07:53:00,63.0,62.0,-100.00,North,0,7.0,11.0,96,-99.99,,,-99.99,,2013-06-29 12:53:00,
2013-06-29 08:02:00,63.0,62.0,-100.00,North,0,7.0,11.0,96,-99.99,,,-99.99,,2013-06-29 13:02:00,
2013-06-29 08:34:00,66.0,62.0,-100.00,North,0,8.0,16.0,88,-99.99,,,-99.99,,2013-06-29 13:34:00,
2013-06-29 08:43:00,66.0,62.0,-100.00,North,0,8.0,16.0,88,-99.99,,,-99.99,,2013-06-29 13:43:00,
2013-06-29 08:53:00,66.0,62.0,-100.00,North,0,8.0,16.0,88,-99.99,,,-99.99,,2013-06-29 13:53:00,
2013-06-29 09:02:00,66.0,62.0,-100.00,North,0,8.0,16.0,88,-99.99,,,-99.99,,2013-06-29 14:02:00,
2013-06-29 09:10:00,64.0,61.0,-100.00,North,0,7.0,12.0,90,-99.99,,,-99.99,,2013-06-29 14:10:00,
2013-06-29 09:34:00,64.0,61.0,-100.00,North,0,7.0,12.0,90,-99.99,,,-99.99,,2013-06-29 14:34:00,
2013-06-29 09:45:00,64.0,61.0,-100.00,North,0,7.0,12.0,90,-99.99,,,-99.99,,2013-06-29 14:45:00,
2013-06-29 09:53:00,64.0,61.0,-100.00,North,0,7.0,12.0,90,-99.99,,,-99.99,,2013-06-29 14:53:00,
2013-06-29 10:01:00,64.0,61.0,-100.00,North,0,7.0,12.0,90,-99.99,,,-99.99,,2013-06-29 15:01:00,
2013-06-29 10:33:00,62.0,60.0,-100.00,North,0,9.0,14.0,94,-99.99,,,-99.99,,2013-06-29 15:33:00,
2013-06-29 10:42:00,62.0,60.0,-100.00,North,0,9.0,14.0,94,-99.99,,,-99.99,,2013-06-29 15:42:00,
2013-06-29 10:53:00,62.0,60.0,-100.00,North,0,9.0,14.0,94,-99.99,,,-99.99,,2013-06-29 15:53:00,
2013-06-29 11:02:00,62.0,60.0,-100.00,North,0,9.0,14.0,94,-99.99,,,-99.99,,2013-06-29 16:02:00,
2013-06-29 11:10:00,62.0,60.0,-100.00,NNE,25,12.0,16.0,95,-99.99,,,-99.99,,2013-06-29 16:10:00,
2013-06-29 11:34:00,62.0,60.0,-100.00,NNE,25,12.0,16.0,95,-99.99,,,-99.99,,2013-06-29 16:34:00,
2013-06-29 11:43:00,62.0,60.0,-100.00,NNE,25,12.0,16.0,95,-99.99,,,-99.99,,2013-06-29 16:43:00,
2013-06-29 11:53:00,62.0,60.0,-100.00,NNE,25,12.0,16.0,95,-99.99,,,-99.99,,2013-06-29 16:53:00,
2013-06-29 12:01:00,62.0,60.0,-100.00,NNE,25,12.0,16.0,95,-99.99,,,-99.99,,2013-06-29 17:01:00,
2013-06-29 12:34:00,63.0,62.0,-100.00,NNE,15,10.0,19.0,94,-99.99,,,-99.99,,2013-06-29 17:34:00,
2013-06-29 12:42:00,63.0,62.0,-100.00,NNE,15,10.0,19.0,94,-99.99,,,-99.99,,2013-06-29 17:42:00,
2013-06-29 12:53:00,63.0,62.0,-100.00,NNE,15,10.0,19.0,94,-99.99,,,-99.99,,2013-06-29 17:53:00,
2013-06-29 13:01:00,63.0,62.0,-100.00,NNE,15,10.0,19.0,94,-99.99,,,-99.99,,2013-06-29 18:01:00,
2013-06-29 13:10:00,66.0,62.0,-100.00,NNE,15,9.0,14.0,85,-99.99,,,-99.99,,2013-06-29 18:10:00,
2013-06-29 13:34:00,66.0,62.0,-100.00,NNE,15,9.0,14.0,85,-99.99,,,-99.99,,2013-06-29 18:34:00,
2013-06-29 13:43:00,66.0,62.0,-100.00,NNE,15,9.0,14.0,85,-99.99,,,-99.99,,2013-06-29 18:43:00,
2013-06-29 13:53:00,66.0,62.0,-100.00,NNE,15,9.0,14.0,85,-99.99,,,-99.99,,2013-06-29 18:53:00,
2013-06-29 14:01:00,66.0,62.0,-100.00,NNE,15,9.0,14.0,85,-99.99,,,-99.99,,2013-06-29 19:01:00,
2013-06-29 14:34:00,69.0,60.0,-100.00,North,0,9.0,13.0,74,-99.99,,,-99.99,,2013-06-29 19:34:00,
2013-06-29 14:43:00,69.0,60.0,-100.00,North,0,9.0,13.0,74,-99.99,,,-99.99,,2013-06-29 19:43:00,
2013-06-29 14:54:00,69.0,60.0,-100.00,North,0,9.0,13.0,74,-99.99,,,-99.99,,2013-06-29 19:54:00,
2013-06-29 15:02:00,69.0,60.0,-100.00,North,0,9.0,13.0,74,-99.99,,,-99.99,,2013-06-29 20:02:00,
2013-06-29 15:33:00,67.0,60.0,-100.00,North,0,7.0,13.0,77,-99.99,,,-99.99,,2013-06-29 20:33:00,
2013-06-29 15:43:00,67.0,60.0,-100.00,North,0,7.0,13.0,77,-99.99,,,-99.99,,2013-06-29 20:43:00,
2013-06-29 15:52:00,67.0,60.0,-100.00,North,0,7.0,13.0,77,-99.99,,,-99.99,,2013-06-29 20:52:00,
2013-06-29 16:02:00,67.0,60.0,-100.00,North,0,7.0,13.0,77,-99.99,,,-99.99,,2013-06-29 21:02:00,
2013-06-29 16:10:00,72.0,58.0,-100.00,NW,310,8.0,16.0,62,-99.99,,,-99.99,,2013-06-29 21:10:00,
2013-06-29 16:32:00,72.0,58.0,-100.00,NW,310,8.0,16.0,62,-99.99,,,-99.99,,2013-06-29 21:32:00,
2013-06-29 16:42:00,72.0,58.0,-100.00,NW,310,8.0,16.0,62,-99.99,,,-99.99,,2013-06-29 21:42:00,
2013-06-29 16:52:00,72.0,58.0,-100.00,NW,310,8.0,16.0,62,-99.99,,,-99.99,,2013-06-29 21:52:00,
2013-06-29 17:01:00,72.0,58.0,-100.00,NW,310,8.0,16.0,62,-99.99,,,-99.99,,2013-06-29 22:01:00,
2013-06-29 17:33:00,72.0,57.0,-100.00,North,0,13.0,23.0,58,-99.99,,,-99.99,,2013-06-29 22:33:00,
2013-06-29 17:43:00,72.0,57.0,-100.00,North,0,13.0,23.0,58,-99.99,,,-99.99,,2013-06-29 22:43:00,
2013-06-29 17:53:00,72.0,57.0,-100.00,North,0,13.0,23.0,58,-99.99,,,-99.99,,2013-06-29 22:53:00,
2013-06-29 18:02:00,72.0,57.0,-100.00,North,0,13.0,23.0,58,-99.99,,,-99.99,,2013-06-29 23:02:00,
2013-06-29 18:34:00,70.0,54.0,-100.00,NNW,340,7.0,14.0,58,-99.99,,,-99.99,,2013-06-29 23:34:00,
2013-06-29 18:43:00,70.0,54.0,-100.00,NNW,340,7.0,14.0,58,-99.99,,,-99.99,,2013-06-29 23:43:00,
2013-06-29 18:53:00,70.0,54.0,-100.00,NNW,340,7.0,14.0,58,-99.99,,,-99.99,,2013-06-29 23:53:00,
2013-06-29 19:02:00,70.0,54.0,-100.00,NNW,340,7.0,14.0,58,-99.99,,,-99.99,,2013-06-30 00:02:00,
2013-06-29 19:34:00,69.0,53.0,-100.00,North,0,11.0,14.0,57,-99.99,,,-99.99,,2013-06-30 00:34:00,
2013-06-29 19:43:00,69.0,53.0,-100.00,North,0,11.0,14.0,57,-99.99,,,-99.99,,2013-06-30 00:43:00,
2013-06-29 19:52:00,69.0,53.0,-100.00,North,0,11.0,14.0,57,-99.99,,,-99.99,,2013-06-30 00:52:00,
2013-06-29 20:01:00,69.0,53.0,-100.00,North,0,11.0,14.0,57,-99.99,,,-99.99,,2013-06-30 01:01:00,
2013-06-29 20:33:00,66.0,53.0,-100.00,North,0,7.0,12.0,63,-99.99,,,-99.99,,2013-06-30 01:33:00,
2013-06-29 20:44:00,66.0,53.0,-100.00,North,0,7.0,12.0,63,-99.99,,,-99.99,,2013-06-30 01:44:00,
2013-06-29 20:53:00,66.0,53.0,-100.00,North,0,7.0,12.0,63,-99.99,,,-99.99,,2013-06-30 01:53:00,
2013-06-29 21:02:00,66.0,53.0,-100.00,North,0,7.0,12.0,63,-99.99,,,-99.99,,2013-06-30 02:02:00,
2013-06-29 21:34:00,65.0,54.0,-100.00,North,0,7.0,11.0,68,-99.99,,,-99.99,,2013-06-30 02:34:00,
2013-06-29 21:43:00,65.0,54.0,-100.00,North,0,7.0,11.0,68,-99.99,,,-99.99,,2013-06-30 02:43:00,
2013-06-29 21:53:00,65.0,54.0,-100.00,North,0,7.0,11.0,68,-99.99,,,-99.99,,2013-06-30 02:53:00,
2013-06-29 22:01:00,65.0,54.0,-100.00,North,0,7.0,11.0,68,-99.99,,,-99.99,,2013-06-30 03:01:00,
2013-06-29 22:34:00,63.0,52.0,-100.00,North,0,9.0,13.0,67,-99.99,,,-99.99,,2013-06-30 03:34:00,
2013-06-29 22:43:00,63.0,52.0,-100.00,North,0,9.0,13.0,67,-99.99,,,-99.99,,2013-06-30 03:43:00,
2013-06-29 22:53:00,63.0,52.0,-100.00,North,0,9.0,13.0,67,-99.99,,,-99.99,,2013-06-30 03:53:00,
2013-06-29 23:01:00,63.0,52.0,-100.00,North,0,9.0,13.0,67,-99.99,,,-99.99,,2013-06-30 04:01:00,